RAM087G EKCH-GMMN
Flight info
| Callsign | RAM087G |
|---|---|
| Flight time | N/A |
| Altitude | 38000 |
| Route | LANGO DCT RAXLU DCT EKERN DCT EMMUN DCT SISGA/N0491F390 DCT KOVIN DCT DUCRA UM728 RESMI UN857 DISAK DCT ARKIP DCT ARNAV DCT LMG DCT UVELI DCT OSMOB DCT ARVID DCT PPN DCT NOLSA DCT ALEPO DCT VASUM N10 CJN L27 BLN DCT MGA DCT PIMOS DCT GALTO UB11 TUSOR |
| Aircraft | B78X/H-SDE1E2E3FGHIJ2J3J4J5M1RWXY/LB1D1 |
Departure
| Time | 2026-05-06 11:41 |
|---|---|
| Airport | Copenhagen Kastrup Airport (EKCH) |
Arrival
| Time | N/A |
|---|---|
| Airport | Mohammed V International Airport (GMMN) |
| Time | Latitude | Longitude | Altitude | Speed | Heading |
|---|---|---|---|---|---|
| 2026-05-06 11:03 | 55.62639 | 12.65079 | 27 ft | 0 kts | 285° |
| 2026-05-06 11:28 | 55.62637 | 12.65090 | 26 ft | 3 kts | 285° |
| 2026-05-06 11:28 | 55.62631 | 12.65123 | 32 ft | 3 kts | 274° |
| 2026-05-06 11:29 | 55.62632 | 12.65159 | 31 ft | 3 kts | 240° |
| 2026-05-06 11:29 | 55.62644 | 12.65188 | 31 ft | 3 kts | 207° |
| 2026-05-06 11:29 | 55.62646 | 12.65190 | 31 ft | 0 kts | 200° |
| 2026-05-06 11:33 | 55.62641 | 12.65188 | 31 ft | 2 kts | 198° |
| 2026-05-06 11:34 | 55.62616 | 12.65179 | 30 ft | 5 kts | 188° |
| 2026-05-06 11:34 | 55.62569 | 12.65176 | 27 ft | 9 kts | 180° |
| 2026-05-06 11:34 | 55.62501 | 12.65181 | 28 ft | 11 kts | 177° |
| 2026-05-06 11:34 | 55.62421 | 12.65187 | 25 ft | 12 kts | 178° |
| 2026-05-06 11:35 | 55.62328 | 12.65193 | 27 ft | 14 kts | 178° |
| 2026-05-06 11:35 | 55.62222 | 12.65182 | 29 ft | 16 kts | 197° |
| 2026-05-06 11:35 | 55.62128 | 12.65084 | 29 ft | 17 kts | 213° |
| 2026-05-06 11:35 | 55.62021 | 12.64957 | 32 ft | 20 kts | 214° |
| 2026-05-06 11:36 | 55.61894 | 12.64816 | 28 ft | 23 kts | 212° |
| 2026-05-06 11:36 | 55.61764 | 12.64666 | 27 ft | 22 kts | 213° |
| 2026-05-06 11:36 | 55.61634 | 12.64517 | 28 ft | 22 kts | 213° |
| 2026-05-06 11:36 | 55.61502 | 12.64364 | 29 ft | 23 kts | 214° |
| 2026-05-06 11:37 | 55.61361 | 12.64204 | 30 ft | 26 kts | 212° |
| 2026-05-06 11:37 | 55.61207 | 12.64027 | 29 ft | 27 kts | 213° |
| 2026-05-06 11:37 | 55.61054 | 12.63850 | 29 ft | 26 kts | 212° |
| 2026-05-06 11:37 | 55.60919 | 12.63695 | 27 ft | 26 kts | 213° |
| 2026-05-06 11:38 | 55.60767 | 12.63519 | 30 ft | 27 kts | 213° |
| 2026-05-06 11:38 | 55.60616 | 12.63333 | 30 ft | 26 kts | 220° |
| 2026-05-06 11:38 | 55.60519 | 12.63222 | 29 ft | 9 kts | 186° |
| 2026-05-06 11:38 | 55.60484 | 12.63249 | 27 ft | 5 kts | 144° |
| 2026-05-06 11:39 | 55.60454 | 12.63298 | 27 ft | 7 kts | 135° |
| 2026-05-06 11:39 | 55.60420 | 12.63357 | 28 ft | 7 kts | 135° |
| 2026-05-06 11:39 | 55.60408 | 12.63420 | 28 ft | 5 kts | 91° |
| 2026-05-06 11:39 | 55.60417 | 12.63461 | 27 ft | 6 kts | 63° |
| 2026-05-06 11:40 | 55.60449 | 12.63521 | 27 ft | 0 kts | 42° |
| 2026-05-06 11:40 | 55.60455 | 12.63530 | 27 ft | 5 kts | 42° |
| 2026-05-06 11:40 | 55.60578 | 12.63723 | 27 ft | 60 kts | 41° |
| 2026-05-06 11:41 | 55.61110 | 12.64538 | 30 ft | 140 kts | 41° |
| 2026-05-06 11:41 | 55.61989 | 12.65850 | 274 ft | 179 kts | 31° |
| 2026-05-06 11:41 | 55.62942 | 12.67213 | 1398 ft | 177 kts | 45° |
| 2026-05-06 11:41 | 55.63735 | 12.68909 | 2537 ft | 178 kts | 51° |
| 2026-05-06 11:42 | 55.64645 | 12.70387 | 3643 ft | 178 kts | 41° |
| 2026-05-06 11:42 | 55.65621 | 12.71818 | 4535 ft | 187 kts | 39° |
| 2026-05-06 11:42 | 55.66693 | 12.73209 | 5469 ft | 194 kts | 36° |
| 2026-05-06 11:42 | 55.67785 | 12.74708 | 6345 ft | 204 kts | 38° |
| 2026-05-06 11:43 | 55.68942 | 12.76432 | 6845 ft | 234 kts | 39° |
| 2026-05-06 11:43 | 55.70237 | 12.78478 | 6926 ft | 268 kts | 46° |
| 2026-05-06 11:43 | 55.70977 | 12.81373 | 6918 ft | 254 kts | 83° |
| 2026-05-06 11:44 | 55.69727 | 12.86770 | 6921 ft | 237 kts | 139° |
| 2026-05-06 11:44 | 55.68290 | 12.88150 | 6927 ft | 234 kts | 160° |
| 2026-05-06 11:44 | 55.66739 | 12.89053 | 6928 ft | 235 kts | 162° |
| 2026-05-06 11:44 | 55.65198 | 12.89981 | 6927 ft | 234 kts | 160° |
| 2026-05-06 11:45 | 55.63667 | 12.90974 | 6928 ft | 234 kts | 159° |
| 2026-05-06 11:45 | 55.62130 | 12.91971 | 6924 ft | 234 kts | 160° |
| 2026-05-06 11:45 | 55.60516 | 12.92241 | 6906 ft | 243 kts | 191° |
| 2026-05-06 11:45 | 55.58999 | 12.90775 | 6924 ft | 250 kts | 225° |
| 2026-05-06 11:46 | 55.57759 | 12.88518 | 6929 ft | 262 kts | 227° |
| 2026-05-06 11:46 | 55.56460 | 12.86087 | 6936 ft | 276 kts | 227° |
| 2026-05-06 11:46 | 55.55125 | 12.83642 | 6936 ft | 278 kts | 226° |
| 2026-05-06 11:46 | 55.53778 | 12.81209 | 7074 ft | 272 kts | 226° |
| 2026-05-06 11:47 | 55.52456 | 12.78785 | 7568 ft | 288 kts | 229° |
| 2026-05-06 11:47 | 55.51552 | 12.75608 | 8079 ft | 293 kts | 259° |
| 2026-05-06 11:47 | 55.51321 | 12.71989 | 8610 ft | 298 kts | 266° |
| 2026-05-06 11:47 | 55.51220 | 12.68364 | 9120 ft | 300 kts | 268° |
| 2026-05-06 11:48 | 55.51118 | 12.64714 | 9735 ft | 296 kts | 266° |
| 2026-05-06 11:48 | 55.50973 | 12.60980 | 10279 ft | 316 kts | 265° |
| 2026-05-06 11:48 | 55.50810 | 12.56977 | 10852 ft | 335 kts | 266° |
| 2026-05-06 11:48 | 55.50655 | 12.52859 | 11420 ft | 340 kts | 266° |
| 2026-05-06 11:49 | 55.50499 | 12.48660 | 11996 ft | 342 kts | 265° |
| 2026-05-06 11:49 | 55.50336 | 12.44428 | 12579 ft | 348 kts | 265° |
| 2026-05-06 11:49 | 55.50168 | 12.40156 | 13111 ft | 352 kts | 265° |
| 2026-05-06 11:49 | 55.49997 | 12.35838 | 14117 ft | 354 kts | 265° |
| 2026-05-06 11:50 | 55.49828 | 12.31543 | 15067 ft | 357 kts | 265° |
| 2026-05-06 11:50 | 55.49623 | 12.27133 | 15969 ft | 362 kts | 261° |
| 2026-05-06 11:50 | 55.48843 | 12.22900 | 16875 ft | 366 kts | 243° |
| 2026-05-06 11:50 | 55.47430 | 12.19130 | 17724 ft | 372 kts | 234° |
| 2026-05-06 11:51 | 55.45871 | 12.15453 | 18552 ft | 376 kts | 233° |
| 2026-05-06 11:51 | 55.44288 | 12.11800 | 19316 ft | 380 kts | 233° |
| 2026-05-06 11:51 | 55.42684 | 12.08069 | 20096 ft | 383 kts | 233° |
| 2026-05-06 11:51 | 55.41076 | 12.04296 | 20867 ft | 386 kts | 233° |
| 2026-05-06 11:52 | 55.39451 | 12.00497 | 21620 ft | 390 kts | 233° |
| 2026-05-06 11:52 | 55.37810 | 11.96687 | 22352 ft | 393 kts | 233° |
| 2026-05-06 11:52 | 55.36153 | 11.92845 | 23081 ft | 396 kts | 233° |
| 2026-05-06 11:52 | 55.34481 | 11.88964 | 23739 ft | 399 kts | 233° |
| 2026-05-06 11:53 | 55.32800 | 11.85068 | 24313 ft | 402 kts | 233° |
| 2026-05-06 11:53 | 55.31104 | 11.81147 | 24835 ft | 405 kts | 233° |
| 2026-05-06 11:53 | 55.29389 | 11.77190 | 25396 ft | 408 kts | 232° |
| 2026-05-06 11:53 | 55.27666 | 11.73220 | 25925 ft | 411 kts | 232° |
| 2026-05-06 11:54 | 55.25925 | 11.69213 | 26453 ft | 414 kts | 232° |
| 2026-05-06 11:54 | 55.24284 | 11.65045 | 26928 ft | 417 kts | 237° |
| 2026-05-06 11:54 | 55.22713 | 11.60764 | 27444 ft | 420 kts | 236° |
| 2026-05-06 11:54 | 55.21137 | 11.56511 | 27911 ft | 423 kts | 236° |
| 2026-05-06 11:55 | 55.19548 | 11.52223 | 28389 ft | 426 kts | 236° |
| 2026-05-06 11:55 | 55.17937 | 11.47870 | 28855 ft | 429 kts | 236° |
| 2026-05-06 11:55 | 55.16304 | 11.43466 | 29317 ft | 432 kts | 235° |
| 2026-05-06 11:55 | 55.14665 | 11.39059 | 29771 ft | 434 kts | 235° |
| 2026-05-06 11:56 | 55.13008 | 11.34615 | 30161 ft | 437 kts | 235° |
| 2026-05-06 11:56 | 55.11344 | 11.30153 | 30520 ft | 440 kts | 235° |
| 2026-05-06 11:56 | 55.09663 | 11.25657 | 30870 ft | 442 kts | 235° |
| 2026-05-06 11:56 | 55.07972 | 11.21143 | 31231 ft | 445 kts | 235° |
| 2026-05-06 11:57 | 55.06292 | 11.16666 | 31583 ft | 448 kts | 235° |
| 2026-05-06 11:57 | 55.04580 | 11.12110 | 31928 ft | 450 kts | 234° |
| 2026-05-06 11:57 | 55.02853 | 11.07526 | 32261 ft | 452 kts | 234° |
| 2026-05-06 11:57 | 55.01120 | 11.02933 | 32604 ft | 455 kts | 234° |
| 2026-05-06 11:58 | 54.99374 | 10.98315 | 32940 ft | 457 kts | 234° |
| 2026-05-06 11:58 | 54.97619 | 10.93679 | 33267 ft | 459 kts | 234° |
| 2026-05-06 11:58 | 54.95855 | 10.89031 | 33577 ft | 461 kts | 234° |
| 2026-05-06 11:58 | 54.94111 | 10.84444 | 34002 ft | 460 kts | 234° |
| 2026-05-06 11:59 | 54.92294 | 10.79766 | 34421 ft | 459 kts | 233° |
| 2026-05-06 11:59 | 54.90507 | 10.75266 | 34805 ft | 458 kts | 233° |
| 2026-05-06 11:59 | 54.88685 | 10.70643 | 35207 ft | 458 kts | 234° |
| 2026-05-06 11:59 | 54.86898 | 10.66065 | 35586 ft | 457 kts | 234° |
| 2026-05-06 12:00 | 54.85129 | 10.61554 | 35972 ft | 457 kts | 234° |
| 2026-05-06 12:00 | 54.83334 | 10.57017 | 36319 ft | 457 kts | 234° |
| 2026-05-06 12:00 | 54.81527 | 10.52455 | 36691 ft | 457 kts | 234° |
| 2026-05-06 12:00 | 54.79725 | 10.47897 | 37066 ft | 457 kts | 234° |
| 2026-05-06 12:01 | 54.77921 | 10.43341 | 37400 ft | 458 kts | 234° |
| 2026-05-06 12:01 | 54.76118 | 10.38805 | 37740 ft | 459 kts | 234° |
| 2026-05-06 12:01 | 54.74299 | 10.34239 | 37884 ft | 463 kts | 234° |
| 2026-05-06 12:01 | 54.72464 | 10.29637 | 37881 ft | 464 kts | 234° |
| 2026-05-06 12:02 | 54.68374 | 10.21129 | 37892 ft | 464 kts | 229° |
| 2026-05-06 12:02 | 54.64137 | 10.12774 | 37892 ft | 462 kts | 228° |
| 2026-05-06 12:03 | 54.59882 | 10.04481 | 37891 ft | 462 kts | 228° |
| 2026-05-06 12:03 | 54.55617 | 9.96158 | 37896 ft | 462 kts | 228° |
| 2026-05-06 12:04 | 54.51348 | 9.87878 | 37895 ft | 463 kts | 228° |
| 2026-05-06 12:04 | 54.46732 | 9.80118 | 37878 ft | 464 kts | 224° |
| 2026-05-06 12:05 | 54.42098 | 9.72520 | 37883 ft | 464 kts | 223° |
| 2026-05-06 12:05 | 54.37400 | 9.64909 | 37882 ft | 464 kts | 223° |
| 2026-05-06 12:06 | 54.32711 | 9.57300 | 37886 ft | 465 kts | 223° |
| 2026-05-06 12:06 | 54.28009 | 9.49713 | 37881 ft | 465 kts | 223° |
| 2026-05-06 12:07 | 54.23286 | 9.42110 | 37889 ft | 465 kts | 223° |
| 2026-05-06 12:07 | 54.18563 | 9.34536 | 37879 ft | 465 kts | 223° |
| 2026-05-06 12:08 | 54.13855 | 9.27007 | 37874 ft | 465 kts | 223° |
| 2026-05-06 12:08 | 54.09124 | 9.19469 | 37875 ft | 465 kts | 223° |
| 2026-05-06 12:09 | 54.04418 | 9.11993 | 37876 ft | 465 kts | 223° |
| 2026-05-06 12:09 | 53.99683 | 9.04496 | 37873 ft | 465 kts | 223° |
| 2026-05-06 12:10 | 53.94936 | 8.97006 | 37873 ft | 465 kts | 223° |
| 2026-05-06 12:10 | 53.90195 | 8.89549 | 37876 ft | 465 kts | 223° |
| 2026-05-06 12:11 | 53.85439 | 8.82092 | 37873 ft | 465 kts | 223° |
| 2026-05-06 12:11 | 53.80681 | 8.74656 | 37878 ft | 466 kts | 223° |
| 2026-05-06 12:12 | 53.75917 | 8.67235 | 37878 ft | 466 kts | 223° |
| 2026-05-06 12:12 | 53.71143 | 8.59822 | 37897 ft | 466 kts | 223° |
| 2026-05-06 12:13 | 53.66356 | 8.52414 | 37867 ft | 467 kts | 222° |
| 2026-05-06 12:13 | 53.61557 | 8.45012 | 37895 ft | 467 kts | 222° |
| 2026-05-06 12:14 | 53.56788 | 8.37676 | 37866 ft | 467 kts | 222° |
| 2026-05-06 12:14 | 53.51980 | 8.30308 | 37889 ft | 466 kts | 222° |
| 2026-05-06 12:15 | 53.47184 | 8.22979 | 37857 ft | 467 kts | 222° |
| 2026-05-06 12:15 | 53.42386 | 8.15672 | 37890 ft | 467 kts | 222° |
| 2026-05-06 12:16 | 53.37593 | 8.08395 | 37857 ft | 467 kts | 222° |
| 2026-05-06 12:16 | 53.32761 | 8.01083 | 37880 ft | 468 kts | 222° |
| 2026-05-06 12:17 | 53.27935 | 7.93803 | 37881 ft | 468 kts | 222° |
| 2026-05-06 12:17 | 53.23096 | 7.86526 | 37882 ft | 468 kts | 222° |
| 2026-05-06 12:18 | 53.18251 | 7.79262 | 37877 ft | 468 kts | 222° |
| 2026-05-06 12:18 | 53.13395 | 7.72007 | 37869 ft | 468 kts | 221° |
| 2026-05-06 12:19 | 53.08571 | 7.64821 | 37870 ft | 468 kts | 221° |
| 2026-05-06 12:19 | 53.03703 | 7.57593 | 37873 ft | 469 kts | 221° |
| 2026-05-06 12:20 | 52.98849 | 7.50407 | 37845 ft | 466 kts | 221° |
| 2026-05-06 12:20 | 52.94004 | 7.43258 | 37875 ft | 466 kts | 221° |
| 2026-05-06 12:21 | 52.89153 | 7.36122 | 37883 ft | 466 kts | 221° |
| 2026-05-06 12:21 | 52.84290 | 7.28991 | 37880 ft | 466 kts | 221° |
| 2026-05-06 12:22 | 52.79426 | 7.21881 | 37885 ft | 466 kts | 221° |
| 2026-05-06 12:22 | 52.74589 | 7.14832 | 37880 ft | 466 kts | 221° |
| 2026-05-06 12:23 | 52.69717 | 7.07754 | 37874 ft | 467 kts | 221° |
| 2026-05-06 12:23 | 52.64907 | 7.00561 | 37880 ft | 467 kts | 223° |
| 2026-05-06 12:24 | 52.60151 | 6.93281 | 37879 ft | 468 kts | 223° |
| 2026-05-06 12:24 | 52.56202 | 6.87178 | 37878 ft | 468 kts | 223° |
| 2026-05-06 12:25 | 52.51445 | 6.79865 | 37876 ft | 468 kts | 223° |
| 2026-05-06 12:25 | 52.46679 | 6.72572 | 37875 ft | 468 kts | 223° |
| 2026-05-06 12:26 | 52.41912 | 6.65289 | 37873 ft | 468 kts | 223° |
| 2026-05-06 12:26 | 52.37135 | 6.58021 | 37870 ft | 468 kts | 223° |
| 2026-05-06 12:27 | 52.32361 | 6.50775 | 37871 ft | 468 kts | 223° |
| 2026-05-06 12:27 | 52.27577 | 6.43540 | 37868 ft | 468 kts | 223° |
| 2026-05-06 12:28 | 52.22826 | 6.36374 | 37871 ft | 468 kts | 222° |
| 2026-05-06 12:28 | 52.18018 | 6.29145 | 37878 ft | 469 kts | 222° |
| 2026-05-06 12:29 | 52.13230 | 6.21970 | 37877 ft | 468 kts | 222° |
| 2026-05-06 12:29 | 52.08421 | 6.14784 | 37879 ft | 469 kts | 222° |
| 2026-05-06 12:30 | 52.03616 | 6.07625 | 37881 ft | 469 kts | 222° |
| 2026-05-06 12:30 | 51.98794 | 6.00464 | 37882 ft | 469 kts | 222° |
| 2026-05-06 12:31 | 51.94000 | 5.93366 | 37881 ft | 470 kts | 222° |
| 2026-05-06 12:31 | 51.89175 | 5.86244 | 37879 ft | 470 kts | 222° |
| 2026-05-06 12:32 | 51.84332 | 5.79116 | 37856 ft | 470 kts | 222° |
| 2026-05-06 12:32 | 51.79492 | 5.72015 | 37853 ft | 470 kts | 222° |
| 2026-05-06 12:33 | 51.74646 | 5.64927 | 37849 ft | 470 kts | 222° |
| 2026-05-06 12:33 | 51.69801 | 5.57862 | 37856 ft | 470 kts | 221° |
| 2026-05-06 12:34 | 51.64940 | 5.50794 | 37854 ft | 470 kts | 221° |
| 2026-05-06 12:34 | 51.60105 | 5.43785 | 37859 ft | 470 kts | 221° |
| 2026-05-06 12:35 | 51.55240 | 5.36755 | 37854 ft | 470 kts | 221° |
| 2026-05-06 12:35 | 51.50375 | 5.29743 | 37856 ft | 470 kts | 221° |
| 2026-05-06 12:36 | 51.45496 | 5.22735 | 37850 ft | 470 kts | 221° |
| 2026-05-06 12:36 | 51.40651 | 5.15796 | 37878 ft | 470 kts | 221° |
| 2026-05-06 12:37 | 51.35763 | 5.08815 | 37870 ft | 471 kts | 221° |
| 2026-05-06 12:37 | 51.30849 | 5.01818 | 37869 ft | 471 kts | 221° |
| 2026-05-06 12:38 | 51.25951 | 4.94865 | 37866 ft | 472 kts | 221° |
| 2026-05-06 12:38 | 51.21037 | 4.87910 | 37869 ft | 472 kts | 221° |
| 2026-05-06 12:39 | 51.16114 | 4.80963 | 37876 ft | 472 kts | 221° |
| 2026-05-06 12:39 | 51.11194 | 4.74042 | 37880 ft | 472 kts | 221° |
| 2026-05-06 12:40 | 51.06296 | 4.67171 | 37878 ft | 472 kts | 221° |
| 2026-05-06 12:40 | 51.01358 | 4.60264 | 37882 ft | 472 kts | 221° |
| 2026-05-06 12:41 | 50.96417 | 4.53374 | 37879 ft | 472 kts | 221° |
| 2026-05-06 12:41 | 50.91462 | 4.46484 | 37878 ft | 473 kts | 221° |
| 2026-05-06 12:42 | 50.86515 | 4.39625 | 37879 ft | 473 kts | 221° |
| 2026-05-06 12:42 | 50.81579 | 4.32803 | 37881 ft | 474 kts | 221° |
| 2026-05-06 12:43 | 50.76603 | 4.25944 | 37881 ft | 474 kts | 221° |
| 2026-05-06 12:43 | 50.71618 | 4.19094 | 37882 ft | 474 kts | 221° |
| 2026-05-06 12:44 | 50.66625 | 4.12251 | 37881 ft | 474 kts | 220° |
| 2026-05-06 12:44 | 50.61593 | 4.05639 | 37904 ft | 473 kts | 212° |
| 2026-05-06 12:45 | 50.55855 | 4.00524 | 37897 ft | 475 kts | 208° |
| 2026-05-06 12:46 | 50.47148 | 3.93073 | 37898 ft | 475 kts | 209° |
| 2026-05-06 12:46 | 50.41340 | 3.88104 | 37901 ft | 475 kts | 208° |
| 2026-05-06 12:47 | 50.35540 | 3.83162 | 37894 ft | 476 kts | 208° |
| 2026-05-06 12:47 | 50.29713 | 3.78205 | 37893 ft | 475 kts | 208° |
| 2026-05-06 12:48 | 50.23893 | 3.73273 | 37892 ft | 475 kts | 208° |
| 2026-05-06 12:48 | 50.18109 | 3.68381 | 37892 ft | 475 kts | 208° |
| 2026-05-06 12:49 | 50.12291 | 3.63476 | 37888 ft | 475 kts | 208° |
| 2026-05-06 12:49 | 50.06468 | 3.58580 | 37885 ft | 475 kts | 208° |
| 2026-05-06 12:50 | 50.00635 | 3.53690 | 37882 ft | 475 kts | 208° |
| 2026-05-06 12:50 | 49.94812 | 3.48821 | 37880 ft | 476 kts | 208° |
| 2026-05-06 12:51 | 49.88997 | 3.43972 | 37885 ft | 476 kts | 208° |
| 2026-05-06 12:51 | 49.83154 | 3.39114 | 37890 ft | 477 kts | 208° |
| 2026-05-06 12:52 | 49.77304 | 3.34262 | 37883 ft | 477 kts | 208° |
| 2026-05-06 12:52 | 49.71448 | 3.29420 | 37883 ft | 477 kts | 208° |
| 2026-05-06 12:53 | 49.65590 | 3.24589 | 37880 ft | 477 kts | 208° |
| 2026-05-06 12:53 | 49.59722 | 3.19763 | 37879 ft | 477 kts | 208° |
| 2026-05-06 12:54 | 49.53871 | 3.14965 | 37877 ft | 478 kts | 208° |
| 2026-05-06 12:54 | 49.48046 | 3.10096 | 37890 ft | 477 kts | 214° |
| 2026-05-06 12:55 | 49.42508 | 3.04449 | 37896 ft | 479 kts | 213° |
| 2026-05-06 12:55 | 49.36942 | 2.98809 | 37896 ft | 479 kts | 213° |
| 2026-05-06 12:56 | 49.31386 | 2.93177 | 37900 ft | 479 kts | 213° |
| 2026-05-06 12:56 | 49.25823 | 2.87567 | 37903 ft | 478 kts | 213° |
| 2026-05-06 12:57 | 49.20260 | 2.81962 | 37907 ft | 479 kts | 213° |
| 2026-05-06 12:57 | 49.14697 | 2.76379 | 37910 ft | 479 kts | 213° |
| 2026-05-06 12:58 | 49.09124 | 2.70798 | 37913 ft | 479 kts | 213° |
| 2026-05-06 12:58 | 49.03548 | 2.65231 | 37917 ft | 478 kts | 213° |
| 2026-05-06 12:59 | 48.97977 | 2.59683 | 37917 ft | 478 kts | 213° |
| 2026-05-06 12:59 | 48.92434 | 2.54178 | 37913 ft | 479 kts | 213° |
| 2026-05-06 13:00 | 48.86840 | 2.48637 | 37915 ft | 479 kts | 213° |
| 2026-05-06 13:00 | 48.81258 | 2.43122 | 37915 ft | 479 kts | 213° |
| 2026-05-06 13:01 | 48.75657 | 2.37605 | 37907 ft | 479 kts | 213° |
| 2026-05-06 13:01 | 48.70100 | 2.32145 | 37909 ft | 479 kts | 213° |
| 2026-05-06 13:02 | 48.64491 | 2.26648 | 37911 ft | 480 kts | 213° |
| 2026-05-06 13:02 | 48.58871 | 2.21189 | 37917 ft | 480 kts | 209° |
| 2026-05-06 13:02 | 48.55838 | 2.19094 | 37925 ft | 481 kts | 198° |
| 2026-05-06 13:03 | 48.52605 | 2.17820 | 37932 ft | 482 kts | 193° |
| 2026-05-06 13:03 | 48.46038 | 2.15688 | 37915 ft | 482 kts | 192° |
| 2026-05-06 13:04 | 48.39508 | 2.13594 | 37913 ft | 483 kts | 193° |
| 2026-05-06 13:04 | 48.32945 | 2.11476 | 37916 ft | 482 kts | 192° |
| 2026-05-06 13:05 | 48.26288 | 2.10502 | 37945 ft | 484 kts | 175° |
| 2026-05-06 13:05 | 48.19598 | 2.11825 | 37917 ft | 485 kts | 173° |
| 2026-05-06 13:06 | 48.12911 | 2.12917 | 37971 ft | 482 kts | 183° |
| 2026-05-06 13:06 | 48.06238 | 2.11803 | 37937 ft | 483 kts | 188° |
| 2026-05-06 13:07 | 47.99606 | 2.10534 | 37948 ft | 483 kts | 188° |
| 2026-05-06 13:07 | 47.92945 | 2.09258 | 37953 ft | 483 kts | 188° |
| 2026-05-06 13:08 | 47.86279 | 2.07990 | 37943 ft | 483 kts | 188° |
| 2026-05-06 13:08 | 47.79610 | 2.06720 | 37941 ft | 483 kts | 188° |
| 2026-05-06 13:09 | 47.72938 | 2.05455 | 37942 ft | 483 kts | 188° |
| 2026-05-06 13:09 | 47.66267 | 2.04193 | 37936 ft | 483 kts | 188° |
| 2026-05-06 13:10 | 47.59825 | 2.01586 | 37931 ft | 482 kts | 202° |
| 2026-05-06 13:10 | 47.53568 | 1.97977 | 37926 ft | 482 kts | 202° |
| 2026-05-06 13:11 | 47.48369 | 1.94955 | 37936 ft | 482 kts | 202° |
| 2026-05-06 13:11 | 47.42115 | 1.91349 | 37946 ft | 483 kts | 202° |
| 2026-05-06 13:12 | 47.35849 | 1.87736 | 37944 ft | 483 kts | 202° |
| 2026-05-06 13:12 | 47.29582 | 1.84136 | 37945 ft | 483 kts | 202° |
| 2026-05-06 13:13 | 47.23310 | 1.80541 | 37943 ft | 483 kts | 202° |
| 2026-05-06 13:13 | 47.17067 | 1.76984 | 37947 ft | 483 kts | 201° |
| 2026-05-06 13:14 | 47.10785 | 1.73461 | 37928 ft | 484 kts | 201° |
| 2026-05-06 13:14 | 47.04487 | 1.69910 | 37941 ft | 484 kts | 201° |
| 2026-05-06 13:15 | 46.98193 | 1.66385 | 37941 ft | 484 kts | 201° |
| 2026-05-06 13:15 | 46.91948 | 1.62889 | 37946 ft | 484 kts | 201° |
| 2026-05-06 13:16 | 46.85666 | 1.59386 | 37939 ft | 484 kts | 201° |
| 2026-05-06 13:16 | 46.79360 | 1.55875 | 37946 ft | 484 kts | 201° |
| 2026-05-06 13:17 | 46.73065 | 1.52380 | 37930 ft | 484 kts | 201° |
| 2026-05-06 13:17 | 46.66770 | 1.48894 | 37918 ft | 484 kts | 201° |
| 2026-05-06 13:18 | 46.60459 | 1.45407 | 37917 ft | 484 kts | 201° |
| 2026-05-06 13:18 | 46.54157 | 1.41935 | 37897 ft | 484 kts | 201° |
| 2026-05-06 13:19 | 46.47851 | 1.38469 | 37903 ft | 485 kts | 201° |
| 2026-05-06 13:19 | 46.41546 | 1.35011 | 37905 ft | 485 kts | 201° |
| 2026-05-06 13:20 | 46.35289 | 1.31588 | 37899 ft | 484 kts | 201° |
| 2026-05-06 13:20 | 46.28967 | 1.28140 | 37901 ft | 483 kts | 201° |
| 2026-05-06 13:21 | 46.22668 | 1.24711 | 37907 ft | 483 kts | 201° |
| 2026-05-06 13:21 | 46.16376 | 1.21295 | 37901 ft | 483 kts | 201° |
| 2026-05-06 13:22 | 46.10075 | 1.17882 | 37899 ft | 483 kts | 201° |
| 2026-05-06 13:22 | 46.03817 | 1.14501 | 37904 ft | 483 kts | 201° |
| 2026-05-06 13:23 | 45.97522 | 1.11108 | 37903 ft | 483 kts | 201° |
| 2026-05-06 13:23 | 45.91228 | 1.07724 | 37918 ft | 483 kts | 201° |
| 2026-05-06 13:24 | 45.84918 | 1.04340 | 37913 ft | 483 kts | 201° |
| 2026-05-06 13:24 | 45.81869 | 1.02335 | 37951 ft | 481 kts | 212° |
| 2026-05-06 13:24 | 45.79156 | 0.99614 | 37937 ft | 482 kts | 221° |
| 2026-05-06 13:25 | 45.74001 | 0.93473 | 37921 ft | 481 kts | 221° |
| 2026-05-06 13:25 | 45.68875 | 0.87312 | 37916 ft | 481 kts | 220° |
| 2026-05-06 13:26 | 45.63735 | 0.81201 | 37913 ft | 481 kts | 221° |
| 2026-05-06 13:26 | 45.58590 | 0.75067 | 37912 ft | 481 kts | 220° |
| 2026-05-06 13:27 | 45.53437 | 0.68959 | 37910 ft | 481 kts | 220° |
| 2026-05-06 13:27 | 45.48290 | 0.62860 | 37910 ft | 481 kts | 220° |
| 2026-05-06 13:28 | 45.43140 | 0.56779 | 37911 ft | 481 kts | 220° |
| 2026-05-06 13:28 | 45.38017 | 0.50742 | 37908 ft | 481 kts | 220° |
| 2026-05-06 13:29 | 45.32854 | 0.44675 | 37906 ft | 481 kts | 220° |
| 2026-05-06 13:29 | 45.27688 | 0.38617 | 37905 ft | 481 kts | 220° |
| 2026-05-06 13:30 | 45.22512 | 0.32563 | 37903 ft | 481 kts | 220° |
| 2026-05-06 13:30 | 45.17345 | 0.26535 | 37907 ft | 481 kts | 220° |
| 2026-05-06 13:31 | 45.12171 | 0.20512 | 37901 ft | 481 kts | 220° |
| 2026-05-06 13:31 | 45.07012 | 0.14521 | 37899 ft | 481 kts | 220° |
| 2026-05-06 13:32 | 45.01837 | 0.08528 | 37901 ft | 481 kts | 220° |
| 2026-05-06 13:32 | 44.96648 | 0.02532 | 37905 ft | 481 kts | 220° |
| 2026-05-06 13:33 | 44.91471 | -0.03435 | 37907 ft | 480 kts | 220° |
| 2026-05-06 13:33 | 44.86289 | -0.09394 | 37907 ft | 480 kts | 220° |
| 2026-05-06 13:34 | 44.81145 | -0.15296 | 37918 ft | 480 kts | 220° |
| 2026-05-06 13:34 | 44.75958 | -0.21232 | 37919 ft | 480 kts | 220° |
| 2026-05-06 13:35 | 44.70780 | -0.27144 | 37925 ft | 480 kts | 220° |
| 2026-05-06 13:35 | 44.65569 | -0.33039 | 37937 ft | 481 kts | 216° |
| 2026-05-06 13:36 | 44.59752 | -0.37658 | 37947 ft | 484 kts | 210° |
| 2026-05-06 13:36 | 44.53793 | -0.41996 | 37930 ft | 482 kts | 210° |
| 2026-05-06 13:37 | 44.47861 | -0.46374 | 37933 ft | 482 kts | 210° |
| 2026-05-06 13:37 | 44.41939 | -0.50698 | 37938 ft | 483 kts | 210° |
| 2026-05-06 13:38 | 44.35984 | -0.55054 | 37939 ft | 482 kts | 210° |
| 2026-05-06 13:38 | 44.30023 | -0.59397 | 37941 ft | 482 kts | 210° |
| 2026-05-06 13:39 | 44.24063 | -0.63732 | 37947 ft | 482 kts | 210° |
| 2026-05-06 13:39 | 44.18144 | -0.68026 | 37972 ft | 483 kts | 210° |
| 2026-05-06 13:40 | 44.12175 | -0.72347 | 37969 ft | 483 kts | 210° |
| 2026-05-06 13:40 | 44.06235 | -0.76635 | 37958 ft | 480 kts | 210° |
| 2026-05-06 13:41 | 44.00301 | -0.80912 | 37964 ft | 481 kts | 210° |
| 2026-05-06 13:41 | 43.94371 | -0.85175 | 37966 ft | 480 kts | 210° |
| 2026-05-06 13:42 | 43.88476 | -0.89403 | 37981 ft | 479 kts | 210° |
| 2026-05-06 13:42 | 43.82509 | -0.93674 | 37994 ft | 480 kts | 210° |
| 2026-05-06 13:43 | 43.76606 | -0.97890 | 38000 ft | 480 kts | 210° |
| 2026-05-06 13:43 | 43.70662 | -1.02124 | 37988 ft | 478 kts | 210° |
| 2026-05-06 13:44 | 43.64738 | -1.06337 | 37987 ft | 478 kts | 210° |
| 2026-05-06 13:44 | 43.58811 | -1.10540 | 37984 ft | 479 kts | 210° |
| 2026-05-06 13:45 | 43.52924 | -1.14706 | 37991 ft | 478 kts | 210° |
| 2026-05-06 13:45 | 43.44041 | -1.20976 | 38011 ft | 478 kts | 210° |
| 2026-05-06 13:46 | 43.38136 | -1.25132 | 38014 ft | 478 kts | 210° |
| 2026-05-06 13:46 | 43.32208 | -1.29295 | 38010 ft | 478 kts | 210° |
| 2026-05-06 13:47 | 43.26281 | -1.33448 | 38011 ft | 478 kts | 210° |
| 2026-05-06 13:47 | 43.20374 | -1.37578 | 38018 ft | 477 kts | 210° |
| 2026-05-06 13:48 | 43.14458 | -1.41706 | 38015 ft | 476 kts | 210° |
| 2026-05-06 13:48 | 43.08569 | -1.45806 | 38033 ft | 478 kts | 210° |
| 2026-05-06 13:49 | 43.02625 | -1.49944 | 38028 ft | 478 kts | 210° |
| 2026-05-06 13:49 | 42.96693 | -1.54072 | 38025 ft | 478 kts | 210° |
| 2026-05-06 13:50 | 42.90758 | -1.58188 | 38017 ft | 478 kts | 210° |
| 2026-05-06 13:50 | 42.84824 | -1.62298 | 38013 ft | 477 kts | 210° |
| 2026-05-06 13:51 | 42.78902 | -1.66389 | 38013 ft | 477 kts | 210° |
| 2026-05-06 13:51 | 42.73026 | -1.70440 | 38011 ft | 477 kts | 210° |
| 2026-05-06 13:52 | 42.67081 | -1.74441 | 38012 ft | 477 kts | 209° |
| 2026-05-06 13:52 | 42.61123 | -1.78445 | 38010 ft | 476 kts | 210° |
| 2026-05-06 13:53 | 42.55181 | -1.82437 | 38003 ft | 476 kts | 209° |
| 2026-05-06 13:53 | 42.49232 | -1.86416 | 37994 ft | 476 kts | 209° |
| 2026-05-06 13:54 | 42.43301 | -1.90382 | 37992 ft | 475 kts | 209° |
| 2026-05-06 13:54 | 42.37391 | -1.94319 | 38012 ft | 475 kts | 209° |
| 2026-05-06 13:55 | 42.31470 | -1.98260 | 37986 ft | 475 kts | 210° |
| 2026-05-06 13:55 | 42.25540 | -2.02211 | 37996 ft | 475 kts | 209° |
| 2026-05-06 13:56 | 42.19587 | -2.06137 | 37988 ft | 475 kts | 209° |
| 2026-05-06 13:56 | 42.13693 | -2.10032 | 37979 ft | 474 kts | 209° |
| 2026-05-06 13:57 | 42.07763 | -2.13944 | 37978 ft | 474 kts | 209° |
| 2026-05-06 13:57 | 42.02805 | -2.17207 | 37970 ft | 474 kts | 209° |
| 2026-05-06 13:58 | 41.96921 | -2.21074 | 37973 ft | 473 kts | 209° |
| 2026-05-06 13:58 | 41.90995 | -2.24959 | 37967 ft | 473 kts | 209° |
| 2026-05-06 13:59 | 41.85087 | -2.28825 | 37963 ft | 472 kts | 209° |
| 2026-05-06 13:59 | 41.79175 | -2.32686 | 37954 ft | 472 kts | 209° |
| 2026-05-06 14:00 | 41.73305 | -2.36510 | 37959 ft | 471 kts | 209° |
| 2026-05-06 14:00 | 41.67397 | -2.40353 | 37951 ft | 471 kts | 209° |
| 2026-05-06 14:01 | 41.61479 | -2.44193 | 37952 ft | 470 kts | 209° |
| 2026-05-06 14:01 | 41.55621 | -2.47987 | 37957 ft | 470 kts | 209° |
| 2026-05-06 14:02 | 41.49740 | -2.51788 | 37955 ft | 470 kts | 209° |
| 2026-05-06 14:02 | 41.43854 | -2.55584 | 37950 ft | 469 kts | 209° |
| 2026-05-06 14:03 | 41.37972 | -2.59369 | 37952 ft | 468 kts | 209° |
| 2026-05-06 14:03 | 41.31796 | -2.62184 | 38002 ft | 478 kts | 192° |
| 2026-05-06 14:04 | 41.25103 | -2.62294 | 37949 ft | 484 kts | 181° |
| 2026-05-06 14:04 | 41.18386 | -2.61747 | 37950 ft | 483 kts | 180° |
| 2026-05-06 14:05 | 41.11694 | -2.61121 | 37964 ft | 482 kts | 180° |
| 2026-05-06 14:05 | 41.05012 | -2.60542 | 37963 ft | 481 kts | 180° |
| 2026-05-06 14:06 | 40.98330 | -2.59941 | 37956 ft | 480 kts | 180° |
| 2026-05-06 14:06 | 40.91705 | -2.59347 | 37952 ft | 479 kts | 180° |
| 2026-05-06 14:07 | 40.85047 | -2.58743 | 37951 ft | 478 kts | 180° |
| 2026-05-06 14:07 | 40.78408 | -2.58146 | 37948 ft | 478 kts | 181° |
| 2026-05-06 14:08 | 40.71763 | -2.57548 | 37946 ft | 478 kts | 181° |
| 2026-05-06 14:08 | 40.65111 | -2.56952 | 37940 ft | 478 kts | 181° |
| 2026-05-06 14:09 | 40.58475 | -2.56358 | 37941 ft | 478 kts | 181° |
| 2026-05-06 14:09 | 40.51847 | -2.55766 | 37942 ft | 478 kts | 181° |
| 2026-05-06 14:10 | 40.45205 | -2.55174 | 37945 ft | 477 kts | 181° |
| 2026-05-06 14:10 | 40.38638 | -2.54888 | 37983 ft | 471 kts | 190° |
| 2026-05-06 14:11 | 40.32360 | -2.56911 | 37962 ft | 463 kts | 205° |
| 2026-05-06 14:11 | 40.26322 | -2.59921 | 37962 ft | 463 kts | 205° |
| 2026-05-06 14:12 | 40.20308 | -2.62956 | 37955 ft | 463 kts | 205° |
| 2026-05-06 14:12 | 40.14287 | -2.65961 | 37955 ft | 462 kts | 205° |
| 2026-05-06 14:13 | 40.08316 | -2.68952 | 37956 ft | 462 kts | 205° |
| 2026-05-06 14:13 | 40.02313 | -2.71943 | 37953 ft | 461 kts | 205° |
| 2026-05-06 14:14 | 39.96307 | -2.74936 | 37945 ft | 461 kts | 205° |
| 2026-05-06 14:14 | 39.90313 | -2.77914 | 37942 ft | 461 kts | 205° |
| 2026-05-06 14:15 | 39.84324 | -2.80886 | 37945 ft | 461 kts | 205° |
| 2026-05-06 14:15 | 39.78332 | -2.83853 | 37941 ft | 460 kts | 205° |
| 2026-05-06 14:16 | 39.72387 | -2.86791 | 37941 ft | 460 kts | 205° |
| 2026-05-06 14:16 | 39.66406 | -2.89742 | 37937 ft | 459 kts | 205° |
| 2026-05-06 14:17 | 39.60422 | -2.92689 | 37938 ft | 459 kts | 205° |
| 2026-05-06 14:17 | 39.54455 | -2.95628 | 37935 ft | 459 kts | 205° |
| 2026-05-06 14:18 | 39.48487 | -2.98567 | 37931 ft | 458 kts | 205° |
| 2026-05-06 14:18 | 39.42519 | -3.01499 | 37931 ft | 459 kts | 205° |
| 2026-05-06 14:19 | 39.36554 | -3.04420 | 37928 ft | 458 kts | 205° |
| 2026-05-06 14:19 | 39.30577 | -3.07325 | 37922 ft | 458 kts | 205° |
| 2026-05-06 14:20 | 39.24618 | -3.10225 | 37920 ft | 457 kts | 205° |
| 2026-05-06 14:20 | 39.18701 | -3.13095 | 37922 ft | 457 kts | 205° |
| 2026-05-06 14:21 | 39.12745 | -3.15982 | 37918 ft | 456 kts | 205° |
| 2026-05-06 14:21 | 39.06802 | -3.18855 | 37920 ft | 456 kts | 205° |
| 2026-05-06 14:22 | 39.00848 | -3.21729 | 37912 ft | 456 kts | 205° |
| 2026-05-06 14:22 | 38.94918 | -3.24586 | 37916 ft | 456 kts | 205° |
| 2026-05-06 14:23 | 38.88976 | -3.27443 | 37911 ft | 456 kts | 205° |
| 2026-05-06 14:23 | 38.83074 | -3.30275 | 37906 ft | 455 kts | 205° |
| 2026-05-06 14:24 | 38.77137 | -3.33120 | 37911 ft | 455 kts | 205° |
| 2026-05-06 14:24 | 38.71211 | -3.35954 | 37908 ft | 455 kts | 205° |
| 2026-05-06 14:25 | 38.65277 | -3.38787 | 37905 ft | 454 kts | 205° |
| 2026-05-06 14:25 | 38.59346 | -3.41614 | 37892 ft | 454 kts | 205° |
| 2026-05-06 14:26 | 38.53426 | -3.44431 | 37898 ft | 454 kts | 205° |
| 2026-05-06 14:26 | 38.47546 | -3.47223 | 37894 ft | 454 kts | 205° |
| 2026-05-06 14:27 | 38.41608 | -3.50038 | 37891 ft | 454 kts | 205° |
| 2026-05-06 14:27 | 38.35677 | -3.52845 | 37886 ft | 455 kts | 205° |
| 2026-05-06 14:28 | 38.29740 | -3.55649 | 37887 ft | 455 kts | 205° |
| 2026-05-06 14:28 | 38.23809 | -3.58446 | 37888 ft | 454 kts | 205° |
| 2026-05-06 14:29 | 38.17870 | -3.61242 | 37892 ft | 454 kts | 205° |
| 2026-05-06 14:29 | 38.12099 | -3.64278 | 37900 ft | 451 kts | 208° |
| 2026-05-06 14:30 | 38.06355 | -3.67510 | 37897 ft | 451 kts | 208° |
| 2026-05-06 14:30 | 38.00619 | -3.70766 | 37893 ft | 451 kts | 208° |
| 2026-05-06 14:31 | 37.94883 | -3.74000 | 37888 ft | 451 kts | 208° |
| 2026-05-06 14:31 | 37.89153 | -3.77233 | 37890 ft | 450 kts | 208° |
| 2026-05-06 14:32 | 37.83430 | -3.80452 | 37887 ft | 450 kts | 208° |
| 2026-05-06 14:32 | 37.77712 | -3.83666 | 37886 ft | 449 kts | 208° |
| 2026-05-06 14:33 | 37.72024 | -3.86855 | 37888 ft | 450 kts | 208° |
| 2026-05-06 14:33 | 37.66306 | -3.90058 | 37891 ft | 449 kts | 208° |
| 2026-05-06 14:34 | 37.60582 | -3.93257 | 37892 ft | 449 kts | 208° |
| 2026-05-06 14:34 | 37.54860 | -3.96450 | 37905 ft | 449 kts | 208° |
| 2026-05-06 14:35 | 37.49145 | -3.99634 | 37902 ft | 449 kts | 208° |
| 2026-05-06 14:35 | 37.43464 | -4.02794 | 37901 ft | 449 kts | 208° |
| 2026-05-06 14:36 | 37.37752 | -4.05966 | 37894 ft | 449 kts | 208° |
| 2026-05-06 14:36 | 37.32033 | -4.09135 | 37896 ft | 449 kts | 208° |
| 2026-05-06 14:37 | 37.26329 | -4.12292 | 37898 ft | 448 kts | 208° |
| 2026-05-06 14:37 | 37.20618 | -4.15447 | 37906 ft | 448 kts | 208° |
| 2026-05-06 14:38 | 37.14908 | -4.18597 | 37899 ft | 448 kts | 208° |
| 2026-05-06 14:38 | 37.09186 | -4.21748 | 37893 ft | 448 kts | 208° |
| 2026-05-06 14:39 | 37.03478 | -4.24885 | 37896 ft | 448 kts | 208° |
| 2026-05-06 14:39 | 36.97777 | -4.28015 | 37906 ft | 448 kts | 208° |
| 2026-05-06 14:40 | 36.92096 | -4.31127 | 37894 ft | 447 kts | 208° |
| 2026-05-06 14:40 | 36.86391 | -4.34249 | 37889 ft | 448 kts | 208° |
| 2026-05-06 14:41 | 36.80755 | -4.37527 | 37914 ft | 444 kts | 215° |
| 2026-05-06 14:41 | 36.75535 | -4.41649 | 37895 ft | 442 kts | 216° |
| 2026-05-06 14:42 | 36.70363 | -4.45767 | 37888 ft | 442 kts | 216° |
| 2026-05-06 14:42 | 36.66056 | -4.49185 | 37887 ft | 442 kts | 216° |
| 2026-05-06 14:43 | 36.60867 | -4.53299 | 37882 ft | 441 kts | 216° |
| 2026-05-06 14:43 | 36.55675 | -4.57408 | 37885 ft | 442 kts | 216° |
| 2026-05-06 14:44 | 36.50484 | -4.61510 | 37886 ft | 442 kts | 216° |
| 2026-05-06 14:45 | 36.42725 | -4.67629 | 37884 ft | 442 kts | 216° |
| 2026-05-06 14:45 | 36.37530 | -4.71718 | 37891 ft | 442 kts | 216° |
| 2026-05-06 14:46 | 36.32338 | -4.75797 | 37893 ft | 441 kts | 216° |
| 2026-05-06 14:46 | 36.27143 | -4.79874 | 37890 ft | 441 kts | 216° |
| 2026-05-06 14:47 | 36.21959 | -4.83934 | 37898 ft | 441 kts | 216° |
| 2026-05-06 14:47 | 36.16766 | -4.87995 | 37892 ft | 441 kts | 216° |
| 2026-05-06 14:48 | 36.11586 | -4.92066 | 37896 ft | 440 kts | 217° |
| 2026-05-06 14:48 | 36.06424 | -4.96173 | 37895 ft | 440 kts | 216° |
| 2026-05-06 14:49 | 36.01293 | -5.00216 | 37903 ft | 440 kts | 216° |
| 2026-05-06 14:49 | 35.96131 | -5.04294 | 37902 ft | 440 kts | 216° |
| 2026-05-06 14:50 | 35.90961 | -5.08363 | 37902 ft | 440 kts | 216° |
| 2026-05-06 14:50 | 35.85832 | -5.12398 | 37905 ft | 440 kts | 216° |
| 2026-05-06 14:51 | 35.80621 | -5.16363 | 37902 ft | 440 kts | 215° |
| 2026-05-06 14:51 | 35.75387 | -5.20291 | 37897 ft | 440 kts | 215° |
| 2026-05-06 14:52 | 35.70130 | -5.24186 | 37903 ft | 440 kts | 215° |